Terminal Aerodrome Forecast
Issued by NWS Wakefield, VA

Home | Current Version | Previous Version | Text Only | Print | Product List | Glossary On
Versions: 1 2 3 4 5 6 7 8 9 10 11 12 13
000
FTUS41 KAKQ 291720
TAFECG
TAF
KECG 291720Z 2918/3018 13006KT P6SM SCT040
     FM300000 15004KT P6SM SKC
     FM301200 19005KT P6SM SCT100=

USA.gov is the U.S. government's official web portal to all federal, state and local government web resources and services.